sensor_id;sensor_type;location;lat;lon;timestamp;P1;durP1;ratioP1;P2;durP2;ratioP2
25467;SDS011;13384;24.794;110.498;2023-02-11T00:01:05;15.43;;;8.93;;
25467;SDS011;13384;24.794;110.498;2023-02-11T00:03:40;14.27;;;8.50;;
25467;SDS011;13384;24.794;110.498;2023-02-11T00:06:11;14.18;;;9.57;;
25467;SDS011;13384;24.794;110.498;2023-02-11T00:08:42;17.38;;;9.57;;
25467;SDS011;13384;24.794;110.498;2023-02-11T00:11:13;16.15;;;9.50;;
25467;SDS011;13384;24.794;110.498;2023-02-11T00:14:05;16.20;;;9.38;;
25467;SDS011;13384;24.794;110.498;2023-02-11T00:16:41;12.35;;;8.65;;
25467;SDS011;13384;24.794;110.498;2023-02-11T00:19:16;16.10;;;9.32;;
25467;SDS011;13384;24.794;110.498;2023-02-11T00:21:47;16.08;;;9.45;;
25467;SDS011;13384;24.794;110.498;2023-02-11T00:24:24;13.05;;;9.05;;
25467;SDS011;13384;24.794;110.498;2023-02-11T00:26:55;13.82;;;9.20;;
25467;SDS011;13384;24.794;110.498;2023-02-11T00:29:25;14.65;;;9.18;;
25467;SDS011;13384;24.794;110.498;2023-02-11T00:31:56;14.35;;;9.48;;
25467;SDS011;13384;24.794;110.498;2023-02-11T00:34:33;15.88;;;10.10;;
25467;SDS011;13384;24.794;110.498;2023-02-11T00:37:26;15.45;;;9.80;;
25467;SDS011;13384;24.794;110.498;2023-02-11T00:40:03;16.23;;;10.32;;
25467;SDS011;13384;24.794;110.498;2023-02-11T00:42:55;15.80;;;10.00;;
25467;SDS011;13384;24.794;110.498;2023-02-11T00:45:26;15.30;;;9.35;;
25467;SDS011;13384;24.794;110.498;2023-02-11T00:48:01;16.10;;;9.82;;
25467;SDS011;13384;24.794;110.498;2023-02-11T00:50:32;17.83;;;10.35;;
25467;SDS011;13384;24.794;110.498;2023-02-11T00:53:04;18.95;;;10.13;;
25467;SDS011;13384;24.794;110.498;2023-02-11T00:55:45;15.80;;;10.23;;
25467;SDS011;13384;24.794;110.498;2023-02-11T00:58:57;15.00;;;10.20;;
25467;SDS011;13384;24.794;110.498;2023-02-11T01:01:50;15.77;;;9.43;;
25467;SDS011;13384;24.794;110.498;2023-02-11T01:04:39;14.80;;;8.93;;
25467;SDS011;13384;24.794;110.498;2023-02-11T01:07:10;17.65;;;10.50;;
25467;SDS011;13384;24.794;110.498;2023-02-11T01:09:41;14.00;;;9.65;;
25467;SDS011;13384;24.794;110.498;2023-02-11T01:12:12;15.00;;;9.93;;
25467;SDS011;13384;24.794;110.498;2023-02-11T01:14:44;16.63;;;10.52;;
25467;SDS011;13384;24.794;110.498;2023-02-11T01:17:23;17.83;;;10.10;;
25467;SDS011;13384;24.794;110.498;2023-02-11T01:20:05;18.55;;;10.05;;
25467;SDS011;13384;24.794;110.498;2023-02-11T01:22:41;17.88;;;10.05;;
25467;SDS011;13384;24.794;110.498;2023-02-11T01:25:15;16.80;;;9.95;;
25467;SDS011;13384;24.794;110.498;2023-02-11T01:27:46;17.40;;;10.50;;
25467;SDS011;13384;24.794;110.498;2023-02-11T01:30:17;17.25;;;9.65;;
25467;SDS011;13384;24.794;110.498;2023-02-11T01:32:54;18.42;;;10.40;;
25467;SDS011;13384;24.794;110.498;2023-02-11T01:35:37;15.73;;;9.70;;
25467;SDS011;13384;24.794;110.498;2023-02-11T01:38:16;18.02;;;10.27;;
25467;SDS011;13384;24.794;110.498;2023-02-11T01:41:08;14.93;;;8.73;;
25467;SDS011;13384;24.794;110.498;2023-02-11T01:46:58;15.55;;;9.35;;
25467;SDS011;13384;24.794;110.498;2023-02-11T01:49:31;13.80;;;8.98;;
25467;SDS011;13384;24.794;110.498;2023-02-11T01:55:01;18.38;;;10.25;;
25467;SDS011;13384;24.794;110.498;2023-02-11T01:57:57;15.52;;;9.50;;
25467;SDS011;13384;24.794;110.498;2023-02-11T02:00:36;18.40;;;9.82;;
25467;SDS011;13384;24.794;110.498;2023-02-11T02:03:15;15.35;;;9.73;;
25467;SDS011;13384;24.794;110.498;2023-02-11T02:09:31;19.10;;;9.30;;
25467;SDS011;13384;24.794;110.498;2023-02-11T02:12:10;18.48;;;9.77;;
25467;SDS011;13384;24.794;110.498;2023-02-11T02:14:42;17.30;;;9.80;;
25467;SDS011;13384;24.794;110.498;2023-02-11T02:17:42;15.23;;;8.60;;
25467;SDS011;13384;24.794;110.498;2023-02-11T02:26:59;25.10;;;10.80;;
25467;SDS011;13384;24.794;110.498;2023-02-11T02:29:55;16.27;;;8.85;;
25467;SDS011;13384;24.794;110.498;2023-02-11T02:32:51;16.08;;;8.80;;
25467;SDS011;13384;24.794;110.498;2023-02-11T02:38:56;18.92;;;9.45;;
25467;SDS011;13384;24.794;110.498;2023-02-11T02:42:02;16.33;;;8.98;;
25467;SDS011;13384;24.794;110.498;2023-02-11T02:44:51;16.95;;;9.43;;
25467;SDS011;13384;24.794;110.498;2023-02-11T02:50:04;23.63;;;9.55;;
25467;SDS011;13384;24.794;110.498;2023-02-11T02:56:01;17.05;;;8.90;;
25467;SDS011;13384;24.794;110.498;2023-02-11T02:58:52;18.17;;;9.27;;
25467;SDS011;13384;24.794;110.498;2023-02-11T03:02:01;27.30;;;8.93;;
25467;SDS011;13384;24.794;110.498;2023-02-11T03:05:15;17.45;;;8.52;;
25467;SDS011;13384;24.794;110.498;2023-02-11T03:07:41;17.40;;;8.63;;
25467;SDS011;13384;24.794;110.498;2023-02-11T03:10:39;20.00;;;9.40;;
25467;SDS011;13384;24.794;110.498;2023-02-11T03:13:31;19.40;;;8.98;;
25467;SDS011;13384;24.794;110.498;2023-02-11T03:16:25;22.10;;;8.97;;
25467;SDS011;13384;24.794;110.498;2023-02-11T03:19:05;24.33;;;9.20;;
25467;SDS011;13384;24.794;110.498;2023-02-11T03:22:04;20.08;;;8.32;;
25467;SDS011;13384;24.794;110.498;2023-02-11T03:24:48;25.50;;;9.48;;
25467;SDS011;13384;24.794;110.498;2023-02-11T03:27:32;18.15;;;8.70;;
25467;SDS011;13384;24.794;110.498;2023-02-11T03:30:14;23.10;;;8.77;;
25467;SDS011;13384;24.794;110.498;2023-02-11T03:33:17;22.77;;;9.45;;
25467;SDS011;13384;24.794;110.498;2023-02-11T03:36:01;19.25;;;8.90;;
25467;SDS011;13384;24.794;110.498;2023-02-11T03:38:44;29.85;;;9.32;;
25467;SDS011;13384;24.794;110.498;2023-02-11T03:41:19;33.80;;;11.23;;
25467;SDS011;13384;24.794;110.498;2023-02-11T03:43:55;30.10;;;9.13;;
25467;SDS011;13384;24.794;110.498;2023-02-11T03:46:49;27.45;;;9.75;;
25467;SDS011;13384;24.794;110.498;2023-02-11T03:49:22;22.48;;;9.55;;
25467;SDS011;13384;24.794;110.498;2023-02-11T03:51:59;38.42;;;11.50;;
25467;SDS011;13384;24.794;110.498;2023-02-11T03:54:55;26.70;;;10.02;;
25467;SDS011;13384;24.794;110.498;2023-02-11T03:57:38;27.52;;;10.20;;
25467;SDS011;13384;24.794;110.498;2023-02-11T04:00:13;27.33;;;10.30;;
25467;SDS011;13384;24.794;110.498;2023-02-11T04:02:45;23.27;;;10.00;;
25467;SDS011;13384;24.794;110.498;2023-02-11T04:05:16;26.33;;;10.70;;
25467;SDS011;13384;24.794;110.498;2023-02-11T04:07:48;27.63;;;9.48;;
25467;SDS011;13384;24.794;110.498;2023-02-11T04:10:19;21.50;;;9.73;;
25467;SDS011;13384;24.794;110.498;2023-02-11T04:12:51;30.98;;;10.48;;
25467;SDS011;13384;24.794;110.498;2023-02-11T04:15:23;27.15;;;10.32;;
25467;SDS011;13384;24.794;110.498;2023-02-11T04:17:59;23.17;;;9.63;;
25467;SDS011;13384;24.794;110.498;2023-02-11T04:20:43;28.95;;;10.23;;
25467;SDS011;13384;24.794;110.498;2023-02-11T04:23:14;19.23;;;9.23;;
25467;SDS011;13384;24.794;110.498;2023-02-11T04:26:05;21.88;;;9.95;;
25467;SDS011;13384;24.794;110.498;2023-02-11T04:28:36;18.75;;;8.85;;
25467;SDS011;13384;24.794;110.498;2023-02-11T04:31:11;20.13;;;8.25;;
25467;SDS011;13384;24.794;110.498;2023-02-11T04:33:43;22.98;;;9.25;;
25467;SDS011;13384;24.794;110.498;2023-02-11T04:36:24;19.85;;;8.25;;
25467;SDS011;13384;24.794;110.498;2023-02-11T04:39:22;22.10;;;8.55;;
25467;SDS011;13384;24.794;110.498;2023-02-11T04:42:14;20.58;;;9.27;;
25467;SDS011;13384;24.794;110.498;2023-02-11T04:44:45;22.05;;;9.02;;
25467;SDS011;13384;24.794;110.498;2023-02-11T04:47:17;29.17;;;9.00;;
25467;SDS011;13384;24.794;110.498;2023-02-11T04:50:00;23.45;;;8.77;;
25467;SDS011;13384;24.794;110.498;2023-02-11T04:52:32;25.33;;;7.82;;
25467;SDS011;13384;24.794;110.498;2023-02-11T04:55:03;20.20;;;8.57;;
25467;SDS011;13384;24.794;110.498;2023-02-11T04:57:54;17.85;;;7.97;;
25467;SDS011;13384;24.794;110.498;2023-02-11T05:00:25;17.48;;;7.82;;
25467;SDS011;13384;24.794;110.498;2023-02-11T05:02:56;17.00;;;8.48;;
25467;SDS011;13384;24.794;110.498;2023-02-11T05:05:28;17.70;;;8.43;;
25467;SDS011;13384;24.794;110.498;2023-02-11T05:08:26;22.48;;;8.00;;
25467;SDS011;13384;24.794;110.498;2023-02-11T05:10:57;18.60;;;9.07;;
25467;SDS011;13384;24.794;110.498;2023-02-11T05:13:30;17.58;;;7.88;;
25467;SDS011;13384;24.794;110.498;2023-02-11T05:16:02;18.63;;;8.43;;
25467;SDS011;13384;24.794;110.498;2023-02-11T05:18:52;17.33;;;7.65;;
25467;SDS011;13384;24.794;110.498;2023-02-11T05:21:29;15.93;;;7.93;;
25467;SDS011;13384;24.794;110.498;2023-02-11T05:24:00;19.23;;;8.25;;
25467;SDS011;13384;24.794;110.498;2023-02-11T05:26:31;26.70;;;8.38;;
25467;SDS011;13384;24.794;110.498;2023-02-11T05:29:06;16.55;;;6.85;;
25467;SDS011;13384;24.794;110.498;2023-02-11T05:32:10;19.30;;;7.65;;
25467;SDS011;13384;24.794;110.498;2023-02-11T05:34:41;15.57;;;7.70;;
25467;SDS011;13384;24.794;110.498;2023-02-11T05:37:12;17.55;;;8.40;;
25467;SDS011;13384;24.794;110.498;2023-02-11T05:39:44;15.82;;;7.78;;
25467;SDS011;13384;24.794;110.498;2023-02-11T05:42:17;16.27;;;7.53;;
25467;SDS011;13384;24.794;110.498;2023-02-11T05:45:09;17.25;;;7.05;;
25467;SDS011;13384;24.794;110.498;2023-02-11T05:47:40;15.85;;;6.82;;
25467;SDS011;13384;24.794;110.498;2023-02-11T05:50:12;17.55;;;7.85;;
25467;SDS011;13384;24.794;110.498;2023-02-11T05:52:43;16.65;;;6.65;;
25467;SDS011;13384;24.794;110.498;2023-02-11T05:55:37;20.63;;;7.97;;
25467;SDS011;13384;24.794;110.498;2023-02-11T05:58:14;14.90;;;7.80;;
25467;SDS011;13384;24.794;110.498;2023-02-11T06:00:45;15.10;;;7.43;;
25467;SDS011;13384;24.794;110.498;2023-02-11T06:05:50;17.25;;;6.82;;
25467;SDS011;13384;24.794;110.498;2023-02-11T06:08:41;14.43;;;6.65;;
25467;SDS011;13384;24.794;110.498;2023-02-11T06:11:15;15.60;;;6.35;;
25467;SDS011;13384;24.794;110.498;2023-02-11T06:13:47;14.45;;;6.72;;
25467;SDS011;13384;24.794;110.498;2023-02-11T06:16:19;13.18;;;7.20;;
25467;SDS011;13384;24.794;110.498;2023-02-11T06:18:51;11.82;;;6.50;;
25467;SDS011;13384;24.794;110.498;2023-02-11T06:21:42;15.98;;;7.15;;
25467;SDS011;13384;24.794;110.498;2023-02-11T06:24:14;13.45;;;7.35;;
25467;SDS011;13384;24.794;110.498;2023-02-11T06:27:07;14.40;;;6.60;;
25467;SDS011;13384;24.794;110.498;2023-02-11T06:29:39;15.93;;;7.00;;
25467;SDS011;13384;24.794;110.498;2023-02-11T06:32:11;11.48;;;6.13;;
25467;SDS011;13384;24.794;110.498;2023-02-11T06:35:12;10.10;;;6.35;;
25467;SDS011;13384;24.794;110.498;2023-02-11T06:37:52;14.20;;;5.65;;
25467;SDS011;13384;24.794;110.498;2023-02-11T06:40:23;12.93;;;6.63;;
25467;SDS011;13384;24.794;110.498;2023-02-11T06:42:56;18.63;;;6.53;;
25467;SDS011;13384;24.794;110.498;2023-02-11T06:45:41;16.13;;;6.18;;
25467;SDS011;13384;24.794;110.498;2023-02-11T06:48:35;11.40;;;6.55;;
25467;SDS011;13384;24.794;110.498;2023-02-11T06:51:08;13.65;;;6.95;;
25467;SDS011;13384;24.794;110.498;2023-02-11T06:54:01;16.15;;;6.40;;
25467;SDS011;13384;24.794;110.498;2023-02-11T06:56:38;14.68;;;6.15;;
25467;SDS011;13384;24.794;110.498;2023-02-11T06:59:15;9.32;;;5.90;;
25467;SDS011;13384;24.794;110.498;2023-02-11T07:02:08;11.00;;;5.60;;
25467;SDS011;13384;24.794;110.498;2023-02-11T07:05:22;16.25;;;6.25;;
25467;SDS011;13384;24.794;110.498;2023-02-11T07:10:47;10.18;;;5.28;;
25467;SDS011;13384;24.794;110.498;2023-02-11T07:13:19;16.30;;;6.07;;
25467;SDS011;13384;24.794;110.498;2023-02-11T07:15:51;10.45;;;5.32;;
25467;SDS011;13384;24.794;110.498;2023-02-11T07:18:24;9.65;;;5.70;;
25467;SDS011;13384;24.794;110.498;2023-02-11T07:21:39;10.05;;;5.78;;
25467;SDS011;13384;24.794;110.498;2023-02-11T07:24:16;10.93;;;5.97;;
25467;SDS011;13384;24.794;110.498;2023-02-11T07:26:48;11.82;;;5.45;;
25467;SDS011;13384;24.794;110.498;2023-02-11T07:29:43;10.80;;;5.78;;
25467;SDS011;13384;24.794;110.498;2023-02-11T07:32:43;12.85;;;5.95;;
25467;SDS011;13384;24.794;110.498;2023-02-11T07:35:16;8.60;;;5.47;;
25467;SDS011;13384;24.794;110.498;2023-02-11T07:37:48;9.95;;;5.50;;
25467;SDS011;13384;24.794;110.498;2023-02-11T07:41:00;10.30;;;5.53;;
25467;SDS011;13384;24.794;110.498;2023-02-11T07:43:53;11.50;;;6.43;;
25467;SDS011;13384;24.794;110.498;2023-02-11T07:46:26;11.43;;;6.35;;
25467;SDS011;13384;24.794;110.498;2023-02-11T07:49:00;12.27;;;6.32;;
25467;SDS011;13384;24.794;110.498;2023-02-11T07:51:35;12.05;;;5.40;;
25467;SDS011;13384;24.794;110.498;2023-02-11T07:54:30;10.63;;;5.78;;
25467;SDS011;13384;24.794;110.498;2023-02-11T07:57:11;10.90;;;5.38;;
25467;SDS011;13384;24.794;110.498;2023-02-11T08:00:22;8.70;;;5.18;;
25467;SDS011;13384;24.794;110.498;2023-02-11T08:02:55;10.50;;;6.07;;
25467;SDS011;13384;24.794;110.498;2023-02-11T08:05:28;9.07;;;5.00;;
25467;SDS011;13384;24.794;110.498;2023-02-11T08:08:18;9.38;;;5.57;;
25467;SDS011;13384;24.794;110.498;2023-02-11T08:10:51;8.98;;;4.93;;
25467;SDS011;13384;24.794;110.498;2023-02-11T08:13:42;8.30;;;5.35;;
25467;SDS011;13384;24.794;110.498;2023-02-11T08:16:19;10.50;;;5.88;;
25467;SDS011;13384;24.794;110.498;2023-02-11T08:19:13;9.35;;;5.47;;
25467;SDS011;13384;24.794;110.498;2023-02-11T08:21:45;9.70;;;5.00;;
25467;SDS011;13384;24.794;110.498;2023-02-11T08:24:16;10.48;;;5.35;;
25467;SDS011;13384;24.794;110.498;2023-02-11T08:26:48;8.82;;;4.90;;
25467;SDS011;13384;24.794;110.498;2023-02-11T08:29:19;10.10;;;5.22;;
25467;SDS011;13384;24.794;110.498;2023-02-11T08:32:03;7.97;;;4.88;;
25467;SDS011;13384;24.794;110.498;2023-02-11T08:34:34;8.82;;;4.68;;
25467;SDS011;13384;24.794;110.498;2023-02-11T08:37:23;12.10;;;5.30;;
25467;SDS011;13384;24.794;110.498;2023-02-11T08:39:56;8.45;;;4.72;;
25467;SDS011;13384;24.794;110.498;2023-02-11T08:42:27;9.93;;;5.20;;
25467;SDS011;13384;24.794;110.498;2023-02-11T08:44:58;7.57;;;4.93;;
25467;SDS011;13384;24.794;110.498;2023-02-11T08:47:30;7.00;;;4.72;;
25467;SDS011;13384;24.794;110.498;2023-02-11T08:50:02;10.55;;;5.43;;
25467;SDS011;13384;24.794;110.498;2023-02-11T08:52:53;8.57;;;5.35;;
25467;SDS011;13384;24.794;110.498;2023-02-11T08:55:31;6.72;;;4.72;;
25467;SDS011;13384;24.794;110.498;2023-02-11T08:58:03;9.07;;;4.65;;
25467;SDS011;13384;24.794;110.498;2023-02-11T09:03:49;9.38;;;5.07;;
25467;SDS011;13384;24.794;110.498;2023-02-11T09:06:21;8.00;;;4.53;;
25467;SDS011;13384;24.794;110.498;2023-02-11T09:08:54;10.18;;;5.78;;
25467;SDS011;13384;24.794;110.498;2023-02-11T09:11:28;8.82;;;4.85;;
25467;SDS011;13384;24.794;110.498;2023-02-11T09:14:04;7.22;;;5.13;;
25467;SDS011;13384;24.794;110.498;2023-02-11T09:16:37;9.23;;;5.45;;
25467;SDS011;13384;24.794;110.498;2023-02-11T09:19:08;9.88;;;5.40;;
25467;SDS011;13384;24.794;110.498;2023-02-11T09:21:40;8.82;;;5.25;;
25467;SDS011;13384;24.794;110.498;2023-02-11T09:24:25;7.93;;;4.97;;
25467;SDS011;13384;24.794;110.498;2023-02-11T09:26:56;7.55;;;4.60;;
25467;SDS011;13384;24.794;110.498;2023-02-11T09:29:47;11.27;;;5.93;;
25467;SDS011;13384;24.794;110.498;2023-02-11T09:32:20;13.43;;;6.97;;
25467;SDS011;13384;24.794;110.498;2023-02-11T09:34:52;18.90;;;14.50;;
25467;SDS011;13384;24.794;110.498;2023-02-11T09:37:23;29.42;;;19.95;;
25467;SDS011;13384;24.794;110.498;2023-02-11T09:39:54;26.98;;;18.25;;
25467;SDS011;13384;24.794;110.498;2023-02-11T09:42:49;20.85;;;13.02;;
25467;SDS011;13384;24.794;110.498;2023-02-11T09:45:31;24.73;;;14.77;;
25467;SDS011;13384;24.794;110.498;2023-02-11T09:48:20;20.70;;;13.05;;
25467;SDS011;13384;24.794;110.498;2023-02-11T09:50:56;16.15;;;10.38;;
25467;SDS011;13384;24.794;110.498;2023-02-11T09:53:34;14.60;;;10.18;;
25467;SDS011;13384;24.794;110.498;2023-02-11T09:56:12;17.77;;;10.43;;
25467;SDS011;13384;24.794;110.498;2023-02-11T09:58:45;14.75;;;9.52;;
25467;SDS011;13384;24.794;110.498;2023-02-11T10:10:27;13.63;;;8.13;;
25467;SDS011;13384;24.794;110.498;2023-02-11T10:13:56;13.00;;;8.30;;
25467;SDS011;13384;24.794;110.498;2023-02-11T10:24:28;18.17;;;8.27;;
25467;SDS011;13384;24.794;110.498;2023-02-11T10:27:00;15.98;;;8.50;;
25467;SDS011;13384;24.794;110.498;2023-02-11T10:29:52;11.75;;;7.32;;
25467;SDS011;13384;24.794;110.498;2023-02-11T10:35:28;13.37;;;8.10;;
25467;SDS011;13384;24.794;110.498;2023-02-11T10:38:00;14.73;;;9.45;;
25467;SDS011;13384;24.794;110.498;2023-02-11T10:40:52;16.88;;;9.50;;
25467;SDS011;13384;24.794;110.498;2023-02-11T10:43:25;15.30;;;9.57;;
25467;SDS011;13384;24.794;110.498;2023-02-11T10:46:23;14.25;;;9.15;;
25467;SDS011;13384;24.794;110.498;2023-02-11T10:49:34;20.45;;;10.30;;
25467;SDS011;13384;24.794;110.498;2023-02-11T10:55:16;22.08;;;11.48;;
25467;SDS011;13384;24.794;110.498;2023-02-11T10:58:00;22.42;;;11.95;;
25467;SDS011;13384;24.794;110.498;2023-02-11T11:00:52;28.13;;;14.55;;
25467;SDS011;13384;24.794;110.498;2023-02-11T11:03:28;28.52;;;15.13;;
25467;SDS011;13384;24.794;110.498;2023-02-11T11:06:28;32.33;;;16.67;;
25467;SDS011;13384;24.794;110.498;2023-02-11T11:09:04;28.27;;;13.05;;
25467;SDS011;13384;24.794;110.498;2023-02-11T11:11:49;31.70;;;15.15;;
25467;SDS011;13384;24.794;110.498;2023-02-11T11:14:22;32.83;;;14.45;;
25467;SDS011;13384;24.794;110.498;2023-02-11T11:17:13;28.08;;;14.55;;
25467;SDS011;13384;24.794;110.498;2023-02-11T11:20:25;18.80;;;10.32;;
25467;SDS011;13384;24.794;110.498;2023-02-11T11:23:16;22.63;;;10.95;;
25467;SDS011;13384;24.794;110.498;2023-02-11T11:26:13;23.23;;;11.45;;
25467;SDS011;13384;24.794;110.498;2023-02-11T11:28:52;18.83;;;10.43;;
25467;SDS011;13384;24.794;110.498;2023-02-11T11:31:30;20.83;;;10.77;;
25467;SDS011;13384;24.794;110.498;2023-02-11T11:37:12;25.77;;;12.93;;
25467;SDS011;13384;24.794;110.498;2023-02-11T11:39:54;17.35;;;9.32;;
25467;SDS011;13384;24.794;110.498;2023-02-11T11:42:42;18.80;;;10.80;;
25467;SDS011;13384;24.794;110.498;2023-02-11T11:48:17;17.35;;;10.18;;
25467;SDS011;13384;24.794;110.498;2023-02-11T11:51:18;16.10;;;8.25;;
25467;SDS011;13384;24.794;110.498;2023-02-11T11:53:59;17.13;;;10.00;;
25467;SDS011;13384;24.794;110.498;2023-02-11T11:56:46;17.55;;;9.43;;
25467;SDS011;13384;24.794;110.498;2023-02-11T11:59:23;19.38;;;10.55;;
25467;SDS011;13384;24.794;110.498;2023-02-11T12:11:20;20.50;;;10.50;;
25467;SDS011;13384;24.794;110.498;2023-02-11T12:13:59;17.23;;;9.43;;
25467;SDS011;13384;24.794;110.498;2023-02-11T12:17:07;15.80;;;9.60;;
25467;SDS011;13384;24.794;110.498;2023-02-11T12:44:49;16.75;;;9.27;;
25467;SDS011;13384;24.794;110.498;2023-02-11T12:56:36;15.85;;;8.70;;
25467;SDS011;13384;24.794;110.498;2023-02-11T13:05:45;16.85;;;9.13;;
25467;SDS011;13384;24.794;110.498;2023-02-11T13:16:55;15.55;;;9.55;;
25467;SDS011;13384;24.794;110.498;2023-02-11T13:19:32;16.42;;;9.25;;
25467;SDS011;13384;24.794;110.498;2023-02-11T13:22:16;13.63;;;8.48;;
25467;SDS011;13384;24.794;110.498;2023-02-11T13:30:37;16.70;;;9.00;;
25467;SDS011;13384;24.794;110.498;2023-02-11T13:33:20;16.95;;;9.07;;
25467;SDS011;13384;24.794;110.498;2023-02-11T13:38:55;14.07;;;9.15;;
25467;SDS011;13384;24.794;110.498;2023-02-11T13:41:34;14.32;;;8.70;;
25467;SDS011;13384;24.794;110.498;2023-02-11T13:47:11;18.73;;;8.88;;
25467;SDS011;13384;24.794;110.498;2023-02-11T13:52:38;14.48;;;8.77;;
25467;SDS011;13384;24.794;110.498;2023-02-11T13:55:21;16.38;;;8.80;;
25467;SDS011;13384;24.794;110.498;2023-02-11T14:00:42;16.30;;;8.98;;
25467;SDS011;13384;24.794;110.498;2023-02-11T14:03:23;17.75;;;9.52;;
25467;SDS011;13384;24.794;110.498;2023-02-11T14:06:18;15.13;;;8.40;;
25467;SDS011;13384;24.794;110.498;2023-02-11T14:11:51;17.30;;;9.68;;
25467;SDS011;13384;24.794;110.498;2023-02-11T14:15:00;15.10;;;8.75;;
25467;SDS011;13384;24.794;110.498;2023-02-11T14:32:38;15.45;;;8.18;;
25467;SDS011;13384;24.794;110.498;2023-02-11T14:41:28;14.52;;;8.80;;
25467;SDS011;13384;24.794;110.498;2023-02-11T14:44:05;14.63;;;8.88;;
25467;SDS011;13384;24.794;110.498;2023-02-11T14:46:58;13.30;;;8.15;;
25467;SDS011;13384;24.794;110.498;2023-02-11T14:49:36;14.00;;;8.68;;
25467;SDS011;13384;24.794;110.498;2023-02-11T14:58:19;15.93;;;8.35;;
25467;SDS011;13384;24.794;110.498;2023-02-11T15:01:31;14.70;;;8.38;;
25467;SDS011;13384;24.794;110.498;2023-02-11T15:04:13;15.75;;;9.13;;
25467;SDS011;13384;24.794;110.498;2023-02-11T15:06:54;13.23;;;8.13;;
25467;SDS011;13384;24.794;110.498;2023-02-11T15:12:26;14.70;;;8.98;;
25467;SDS011;13384;24.794;110.498;2023-02-11T15:15:01;15.50;;;8.13;;
25467;SDS011;13384;24.794;110.498;2023-02-11T15:17:33;13.80;;;8.27;;
25467;SDS011;13384;24.794;110.498;2023-02-11T15:20:25;13.93;;;8.27;;
25467;SDS011;13384;24.794;110.498;2023-02-11T15:23:05;16.45;;;8.38;;
25467;SDS011;13384;24.794;110.498;2023-02-11T15:25:44;17.27;;;8.88;;
25467;SDS011;13384;24.794;110.498;2023-02-11T15:28:46;11.93;;;7.85;;
25467;SDS011;13384;24.794;110.498;2023-02-11T15:31:40;14.30;;;7.60;;
25467;SDS011;13384;24.794;110.498;2023-02-11T15:34:14;11.10;;;7.57;;
25467;SDS011;13384;24.794;110.498;2023-02-11T15:36:58;14.18;;;8.30;;
25467;SDS011;13384;24.794;110.498;2023-02-11T15:39:33;16.15;;;9.20;;
25467;SDS011;13384;24.794;110.498;2023-02-11T15:42:26;16.38;;;9.73;;
25467;SDS011;13384;24.794;110.498;2023-02-11T15:45:22;15.20;;;9.23;;
25467;SDS011;13384;24.794;110.498;2023-02-11T15:48:20;18.73;;;9.48;;
25467;SDS011;13384;24.794;110.498;2023-02-11T15:51:03;15.93;;;8.90;;
25467;SDS011;13384;24.794;110.498;2023-02-11T15:54:01;16.77;;;8.98;;
25467;SDS011;13384;24.794;110.498;2023-02-11T15:56:40;16.50;;;9.38;;
25467;SDS011;13384;24.794;110.498;2023-02-11T15:59:24;14.07;;;8.00;;
25467;SDS011;13384;24.794;110.498;2023-02-11T16:02:28;15.20;;;7.95;;
25467;SDS011;13384;24.794;110.498;2023-02-11T16:05:03;16.27;;;8.32;;
25467;SDS011;13384;24.794;110.498;2023-02-11T16:07:47;20.33;;;10.20;;
25467;SDS011;13384;24.794;110.498;2023-02-11T16:10:21;15.45;;;8.57;;
25467;SDS011;13384;24.794;110.498;2023-02-11T16:13:14;17.80;;;9.25;;
25467;SDS011;13384;24.794;110.498;2023-02-11T16:16:04;18.95;;;10.32;;
25467;SDS011;13384;24.794;110.498;2023-02-11T16:19:11;17.20;;;8.98;;
25467;SDS011;13384;24.794;110.498;2023-02-11T16:21:52;18.70;;;9.40;;
25467;SDS011;13384;24.794;110.498;2023-02-11T16:24:47;16.35;;;8.27;;
25467;SDS011;13384;24.794;110.498;2023-02-11T16:28:11;14.23;;;7.85;;
25467;SDS011;13384;24.794;110.498;2023-02-11T16:30:45;22.13;;;10.80;;
25467;SDS011;13384;24.794;110.498;2023-02-11T16:33:24;16.67;;;9.05;;
25467;SDS011;13384;24.794;110.498;2023-02-11T16:35:57;17.63;;;9.60;;
25467;SDS011;13384;24.794;110.498;2023-02-11T16:38:32;17.80;;;9.35;;
25467;SDS011;13384;24.794;110.498;2023-02-11T16:41:03;16.23;;;9.48;;
25467;SDS011;13384;24.794;110.498;2023-02-11T16:43:35;13.88;;;8.48;;
25467;SDS011;13384;24.794;110.498;2023-02-11T16:46:06;15.63;;;9.05;;
25467;SDS011;13384;24.794;110.498;2023-02-11T16:48:40;18.00;;;8.90;;
25467;SDS011;13384;24.794;110.498;2023-02-11T16:51:11;18.08;;;9.45;;
25467;SDS011;13384;24.794;110.498;2023-02-11T16:53:43;15.82;;;8.88;;
25467;SDS011;13384;24.794;110.498;2023-02-11T16:56:57;16.95;;;9.25;;
25467;SDS011;13384;24.794;110.498;2023-02-11T16:59:28;13.48;;;8.73;;
25467;SDS011;13384;24.794;110.498;2023-02-11T17:02:21;14.00;;;7.90;;
25467;SDS011;13384;24.794;110.498;2023-02-11T17:05:01;17.23;;;10.15;;
25467;SDS011;13384;24.794;110.498;2023-02-11T17:07:54;15.00;;;8.93;;
25467;SDS011;13384;24.794;110.498;2023-02-11T17:10:26;13.60;;;7.97;;
25467;SDS011;13384;24.794;110.498;2023-02-11T17:13:02;17.13;;;9.05;;
25467;SDS011;13384;24.794;110.498;2023-02-11T17:15:37;19.48;;;9.13;;
25467;SDS011;13384;24.794;110.498;2023-02-11T17:18:28;17.92;;;9.13;;
25467;SDS011;13384;24.794;110.498;2023-02-11T17:21:00;14.38;;;8.00;;
25467;SDS011;13384;24.794;110.498;2023-02-11T17:23:35;16.30;;;9.20;;
25467;SDS011;13384;24.794;110.498;2023-02-11T17:26:08;18.85;;;9.52;;
25467;SDS011;13384;24.794;110.498;2023-02-11T17:29:03;19.38;;;9.55;;
25467;SDS011;13384;24.794;110.498;2023-02-11T17:31:36;18.77;;;9.00;;
25467;SDS011;13384;24.794;110.498;2023-02-11T17:34:28;17.83;;;9.35;;
25467;SDS011;13384;24.794;110.498;2023-02-11T17:37:04;19.73;;;10.32;;
25467;SDS011;13384;24.794;110.498;2023-02-11T17:39:39;16.23;;;9.20;;
25467;SDS011;13384;24.794;110.498;2023-02-11T17:42:10;15.40;;;8.85;;
25467;SDS011;13384;24.794;110.498;2023-02-11T17:44:47;17.05;;;9.15;;
25467;SDS011;13384;24.794;110.498;2023-02-11T17:47:21;17.17;;;9.45;;
25467;SDS011;13384;24.794;110.498;2023-02-11T17:49:53;16.02;;;8.60;;
25467;SDS011;13384;24.794;110.498;2023-02-11T17:52:24;13.38;;;8.43;;
25467;SDS011;13384;24.794;110.498;2023-02-11T17:54:56;18.45;;;9.77;;
25467;SDS011;13384;24.794;110.498;2023-02-11T17:57:27;16.48;;;9.27;;
25467;SDS011;13384;24.794;110.498;2023-02-11T18:02:48;15.10;;;8.70;;
25467;SDS011;13384;24.794;110.498;2023-02-11T18:05:20;15.18;;;9.50;;
25467;SDS011;13384;24.794;110.498;2023-02-11T18:07:53;14.50;;;9.25;;
25467;SDS011;13384;24.794;110.498;2023-02-11T18:10:24;15.55;;;9.18;;
25467;SDS011;13384;24.794;110.498;2023-02-11T18:12:55;15.18;;;8.60;;
25467;SDS011;13384;24.794;110.498;2023-02-11T18:15:32;15.95;;;9.40;;
25467;SDS011;13384;24.794;110.498;2023-02-11T18:18:03;15.10;;;9.13;;
25467;SDS011;13384;24.794;110.498;2023-02-11T18:20:37;13.73;;;8.45;;
25467;SDS011;13384;24.794;110.498;2023-02-11T18:23:11;16.88;;;8.82;;